ATL weather

Hartsfield Jackson Atlanta International Airport
Atlanta, Georgia, United States

Public forecast

Using degrees Fahrenheit for public forecast. Weather courtesy of forecast.io.

METAR (pilot weather report)

Retrieved 2017/10/22 09:52 UTC (51 minutes ago):

KATL 220952Z 08009KT 10SM FEW250 15/13 A3024 RMK AO2 SLP234 T01500133

TAF (pilot weather forecast)

Retrieved 2017/10/22 06:48 UTC (4 hours ago):

TAF KATL 220545Z 2206/2312 10006KT P6SM FEW050 SCT150 FM220900 10004KT P6SM SCT030 BKN250 FM221000 10005KT P6SM SCT015 BKN025 FM221400 10008KT P6SM SCT025 BKN040 FM221600 11010G20KT P6SM BKN040 FM230200 13010KT P6SM VCSH BKN025 FM230800 11010KT 4SM -SHRA BR OVC008